Time;durP1;ratioP1;P1;durP2;ratioP2;P2;SDS_P1;SDS_P2;PMS_P1;PMS_P2;Temp;Humidity;BMP_temperature;BMP_pressure;BME280_temperature;BME280_humidity;BME280_pressure;Samples;Min_cycle;Max_cycle;Signal;HPM_P1;HPM_P2
2022/11/30 00:01:10;;;;;;;6.80;5.05;;;21.00;40.10;;;;;;5029778;28;20053;-63
2022/11/30 00:03:37;;;;;;;6.90;5.10;;;21.00;40.10;;;;;;5029756;28;20045;-63
2022/11/30 00:06:11;;;;;;;7.53;5.20;;;21.00;40.10;;;;;;5030070;28;20140;-63
2022/11/30 00:08:38;;;;;;;8.43;5.63;;;21.00;40.10;;;;;;5028918;28;20050;-63
2022/11/30 00:11:14;;;;;;;6.65;5.25;;;21.00;40.10;;;;;;5029564;28;20049;-64
2022/11/30 00:13:41;;;;;;;7.40;5.00;;;21.00;40.10;;;;;;5029913;28;20487;-63
2022/11/30 00:16:10;;;;;;;7.45;5.32;;;21.00;40.10;;;;;;5029808;28;20050;-63
2022/11/30 00:18:37;;;;;;;7.28;5.30;;;21.00;40.10;;;;;;5024541;28;20046;-63
2022/11/30 00:21:07;;;;;;;7.72;5.40;;;21.00;40.10;;;;;;5029784;28;20045;-63
2022/11/30 00:23:36;;;;;;;7.45;5.65;;;21.00;40.10;;;;;;5011930;28;20469;-63
2022/11/30 00:26:06;;;;;;;7.43;5.82;;;20.90;40.10;;;;;;5012365;28;20407;-63
2022/11/30 00:28:33;;;;;;;6.93;5.20;;;20.90;40.10;;;;;;5011812;28;20049;-63
2022/11/30 00:31:06;;;;;;;6.60;5.15;;;20.90;40.10;;;;;;5029693;28;20076;-63
2022/11/30 00:33:35;;;;;;;5.53;4.47;;;20.90;40.10;;;;;;5011793;28;20080;-63
2022/11/30 00:36:05;;;;;;;8.02;5.72;;;20.90;40.10;;;;;;5029600;28;20505;-63
2022/11/30 00:38:32;;;;;;;5.50;4.47;;;20.90;40.10;;;;;;5029451;28;20072;-63
2022/11/30 00:41:00;;;;;;;6.72;5.72;;;20.90;40.10;;;;;;5029456;28;20054;-63
2022/11/30 00:43:28;;;;;;;7.53;4.80;;;20.90;40.10;;;;;;5029192;28;20057;-63
2022/11/30 00:45:55;;;;;;;6.70;4.68;;;20.90;40.00;;;;;;5029012;28;20140;-63
2022/11/30 00:48:23;;;;;;;6.55;4.97;;;21.00;40.10;;;;;;5029575;28;20490;-63
2022/11/30 00:50:51;;;;;;;8.70;5.18;;;21.00;40.10;;;;;;5024860;28;20418;-64
2022/11/30 00:53:19;;;;;;;6.03;4.72;;;20.90;40.00;;;;;;5029333;28;20075;-63
2022/11/30 00:55:46;;;;;;;7.95;5.13;;;20.90;40.00;;;;;;5028818;28;20072;-63
2022/11/30 00:58:13;;;;;;;6.95;4.88;;;20.90;40.00;;;;;;5011333;28;20045;-63
2022/11/30 01:00:41;;;;;;;6.68;4.85;;;21.00;40.00;;;;;;5029206;28;20116;-63
2022/11/30 01:03:09;;;;;;;8.75;5.93;;;20.90;40.00;;;;;;5029455;28;20053;-63
2022/11/30 01:05:37;;;;;;;7.13;4.88;;;20.90;40.00;;;;;;5028838;28;20042;-63
2022/11/30 01:08:06;;;;;;;7.35;4.80;;;20.90;40.00;;;;;;5028953;28;20052;-64
2022/11/30 01:10:35;;;;;;;5.32;4.32;;;20.90;40.00;;;;;;5027814;28;20057;-63
2022/11/30 01:13:03;;;;;;;6.22;4.75;;;20.90;40.00;;;;;;5029467;28;20522;-64
2022/11/30 01:15:30;;;;;;;7.50;5.05;;;20.90;40.00;;;;;;5028781;28;20057;-63
2022/11/30 01:18:00;;;;;;;6.72;4.78;;;20.90;40.00;;;;;;5028700;28;20045;-64
2022/11/30 01:20:27;;;;;;;6.63;4.85;;;20.90;40.00;;;;;;5028194;28;20124;-63
2022/11/30 01:22:55;;;;;;;7.15;4.88;;;20.90;40.00;;;;;;5022572;28;20615;-63
2022/11/30 01:25:22;;;;;;;7.18;5.07;;;20.90;40.00;;;;;;5006113;28;20159;-63
2022/11/30 01:27:50;;;;;;;7.15;4.90;;;20.90;40.00;;;;;;5008358;28;20056;-63
2022/11/30 01:30:18;;;;;;;7.35;5.50;;;20.90;40.00;;;;;;4991918;28;20053;-63
2022/11/30 01:32:45;;;;;;;8.25;5.32;;;20.90;40.00;;;;;;5008812;28;20054;-63
2022/11/30 01:35:13;;;;;;;6.40;4.93;;;20.90;40.00;;;;;;5009192;28;20507;-63
2022/11/30 01:37:40;;;;;;;7.18;5.18;;;20.90;40.00;;;;;;5008828;28;20053;-63
2022/11/30 01:40:09;;;;;;;6.28;5.00;;;20.90;40.00;;;;;;5008430;28;20049;-63
2022/11/30 01:42:36;;;;;;;5.93;4.53;;;20.90;40.00;;;;;;4991716;28;20049;-63
2022/11/30 01:45:06;;;;;;;6.80;5.00;;;20.90;40.00;;;;;;5009176;28;20189;-64
2022/11/30 01:47:40;;;;;;;6.13;4.45;;;20.90;40.00;;;;;;5008575;28;20046;-63
2022/11/30 01:50:13;;;;;;;7.57;5.30;;;20.90;40.00;;;;;;5008764;28;20528;-63
2022/11/30 01:52:45;;;;;;;7.40;5.15;;;20.90;40.00;;;;;;5012429;28;20050;-63
2022/11/30 01:55:20;;;;;;;7.65;5.13;;;20.90;40.00;;;;;;5009448;28;20049;-63
2022/11/30 01:57:52;;;;;;;6.90;4.88;;;20.90;40.00;;;;;;5012220;28;20045;-63
2022/11/30 02:00:20;;;;;;;7.63;5.35;;;20.80;40.00;;;;;;5012263;28;20085;-63
2022/11/30 02:03:00;;;;;;;7.07;4.82;;;20.80;40.00;;;;;;4995075;28;20052;-63
2022/11/30 02:05:29;;;;;;;7.57;5.30;;;20.80;39.90;;;;;;5012461;28;20037;-63
2022/11/30 02:07:56;;;;;;;6.80;5.03;;;20.90;40.00;;;;;;5011661;28;20050;-63
2022/11/30 02:10:30;;;;;;;9.23;5.10;;;20.90;40.00;;;;;;5012699;28;20137;-63
2022/11/30 02:13:37;;;;;;;6.68;4.43;;;20.80;40.00;;;;;;5011272;28;20057;-63
2022/11/30 02:16:44;;;;;;;5.10;4.30;;;20.80;40.00;;;;;;5011988;28;20072;-64
2022/11/30 02:19:47;;;;;;;7.47;5.03;;;20.90;40.00;;;;;;5012287;28;20403;-64
2022/11/30 02:22:42;;;;;;;6.88;4.32;;;20.80;40.00;;;;;;5011969;28;20048;-64
2022/11/30 02:25:34;;;;;;;6.07;4.57;;;20.80;40.00;;;;;;5011943;28;20046;-63
2022/11/30 02:28:28;;;;;;;6.30;4.57;;;20.80;40.00;;;;;;5012406;28;20060;-63
2022/11/30 02:30:59;;;;;;;7.35;4.88;;;20.80;40.00;;;;;;4993328;28;20049;-63
2022/11/30 02:33:30;;;;;;;7.15;4.57;;;20.80;40.00;;;;;;5011657;28;20050;-63
2022/11/30 02:35:59;;;;;;;8.02;5.05;;;20.80;40.00;;;;;;5012168;28;20046;-63
2022/11/30 02:38:27;;;;;;;6.68;4.85;;;20.80;40.00;;;;;;4994127;28;20046;-63
2022/11/30 02:40:54;;;;;;;6.30;4.63;;;20.80;40.00;;;;;;5011961;28;20408;-63
2022/11/30 02:43:24;;;;;;;5.43;4.20;;;20.80;40.00;;;;;;4978672;28;20081;-63
2022/11/30 02:46:22;;;;;;;7.00;4.82;;;20.80;40.00;;;;;;5011317;28;20046;-63
2022/11/30 02:49:14;;;;;;;6.15;4.30;;;20.80;40.00;;;;;;5010882;28;20050;-63
2022/11/30 02:51:43;;;;;;;6.85;4.55;;;20.80;40.00;;;;;;5011877;28;20128;-63
2022/11/30 02:54:10;;;;;;;6.18;4.90;;;20.80;40.00;;;;;;4994370;28;20056;-64
2022/11/30 02:56:37;;;;;;;5.45;4.00;;;20.80;40.00;;;;;;4993580;28;20410;-63
2022/11/30 02:59:05;;;;;;;6.68;4.88;;;20.80;40.00;;;;;;5011629;28;20050;-63
2022/11/30 03:01:32;;;;;;;7.40;4.55;;;20.80;39.90;;;;;;5009366;28;20112;-63
2022/11/30 03:03:59;;;;;;;7.05;5.13;;;20.80;39.90;;;;;;5007706;28;20108;-63
2022/11/30 03:06:26;;;;;;;7.60;5.07;;;20.80;39.90;;;;;;5011070;28;20053;-63
2022/11/30 03:08:53;;;;;;;6.93;4.57;;;20.80;39.90;;;;;;5010619;28;20167;-63
2022/11/30 03:11:20;;;;;;;6.88;4.55;;;20.80;39.90;;;;;;5011711;28;20053;-64
2022/11/30 03:13:47;;;;;;;7.32;4.88;;;20.90;39.90;;;;;;5011009;28;20157;-63
2022/11/30 03:16:14;;;;;;;6.25;4.75;;;20.80;39.80;;;;;;5010808;28;20050;-64
2022/11/30 03:18:42;;;;;;;7.90;5.03;;;20.80;39.90;;;;;;5010958;28;20052;-63
2022/11/30 03:21:11;;;;;;;6.82;4.57;;;20.80;39.90;;;;;;5010958;28;20432;-63
2022/11/30 03:23:39;;;;;;;7.80;5.63;;;20.80;39.80;;;;;;5010709;28;20056;-63
2022/11/30 03:26:07;;;;;;;6.85;4.95;;;20.80;39.80;;;;;;4993624;28;20048;-63
2022/11/30 03:28:35;;;;;;;6.70;4.60;;;20.80;39.80;;;;;;5010718;28;20046;-63
2022/11/30 03:31:03;;;;;;;6.10;4.47;;;20.80;39.90;;;;;;5010739;28;20069;-63
2022/11/30 03:33:31;;;;;;;7.40;5.60;;;20.80;39.90;;;;;;5008996;28;20766;-63
2022/11/30 03:36:01;;;;;;;6.00;4.55;;;20.80;39.90;;;;;;4990118;28;20488;-63
2022/11/30 03:38:29;;;;;;;8.15;5.90;;;20.80;39.90;;;;;;5010684;28;20058;-63
2022/11/30 03:41:05;;;;;;;6.28;4.68;;;20.80;39.90;;;;;;5010691;28;20057;-63
2022/11/30 03:43:33;;;;;;;7.78;5.03;;;20.80;39.90;;;;;;5010733;28;20057;-63
2022/11/30 03:46:01;;;;;;;7.30;5.25;;;20.80;39.90;;;;;;5010201;28;20052;-63
2022/11/30 03:48:29;;;;;;;7.85;5.13;;;20.80;39.90;;;;;;4992460;28;20057;-63
2022/11/30 03:50:57;;;;;;;7.95;5.20;;;20.80;39.90;;;;;;5010352;28;20042;-63
2022/11/30 03:53:25;;;;;;;6.50;4.70;;;20.80;39.90;;;;;;5010580;28;20065;-63
2022/11/30 03:55:57;;;;;;;7.20;4.95;;;20.80;39.90;;;;;;5010189;28;20050;-63
2022/11/30 03:58:25;;;;;;;6.05;4.65;;;20.80;39.80;;;;;;5009845;28;20057;-63
2022/11/30 04:01:05;;;;;;;7.47;4.85;;;20.80;39.90;;;;;;5010218;28;20052;-63
2022/11/30 04:03:33;;;;;;;6.03;4.55;;;20.80;39.90;;;;;;5009714;28;20411;-64
2022/11/30 04:06:02;;;;;;;7.20;4.95;;;20.80;39.80;;;;;;5005938;28;20407;-63
2022/11/30 04:08:30;;;;;;;7.80;4.70;;;20.80;40.40;;;;;;5009557;28;20053;-64
2022/11/30 04:10:58;;;;;;;7.30;4.90;;;20.70;39.80;;;;;;5010676;28;20045;-63
2022/11/30 04:13:27;;;;;;;6.13;4.85;;;20.80;39.90;;;;;;5010001;28;20050;-64
2022/11/30 04:15:55;;;;;;;7.18;5.18;;;20.70;39.80;;;;;;5009987;28;20483;-63
2022/11/30 04:18:25;;;;;;;7.40;5.03;;;20.70;39.80;;;;;;5010154;28;20057;-63
2022/11/30 04:20:54;;;;;;;7.18;5.00;;;20.80;39.90;;;;;;5009955;28;20061;-63
2022/11/30 04:23:22;;;;;;;7.82;4.70;;;20.70;39.90;;;;;;5009629;28;20053;-63
2022/11/30 04:25:50;;;;;;;7.97;5.28;;;20.70;39.80;;;;;;5010082;28;20053;-63
2022/11/30 04:28:18;;;;;;;6.68;4.85;;;20.70;39.80;;;;;;5008897;28;20046;-63
2022/11/30 04:30:46;;;;;;;6.60;4.78;;;20.80;39.90;;;;;;5009231;28;20065;-63
2022/11/30 04:33:15;;;;;;;6.05;4.50;;;20.70;39.90;;;;;;5008568;28;20413;-63
2022/11/30 04:35:50;;;;;;;5.07;4.35;;;20.70;39.80;;;;;;4991582;28;20058;-63
2022/11/30 04:38:17;;;;;;;7.90;4.72;;;20.70;39.90;;;;;;5004334;28;20045;-63
2022/11/30 04:40:44;;;;;;;7.00;4.63;;;20.70;39.80;;;;;;4977057;28;20050;-63
2022/11/30 04:43:12;;;;;;;6.18;4.63;;;20.80;39.90;;;;;;5002761;28;20057;-63
2022/11/30 04:45:39;;;;;;;6.53;4.80;;;20.70;39.90;;;;;;5007763;28;20037;-63
2022/11/30 04:48:07;;;;;;;8.23;5.15;;;20.70;39.90;;;;;;5006989;28;20054;-63
2022/11/30 04:50:35;;;;;;;9.35;5.35;;;20.70;39.90;;;;;;5006330;28;20510;-63
2022/11/30 04:53:03;;;;;;;7.85;5.15;;;20.70;40.00;;;;;;5009817;28;20049;-63
2022/11/30 04:55:30;;;;;;;8.45;5.15;;;20.70;39.90;;;;;;5010090;28;20714;-63
2022/11/30 04:57:57;;;;;;;7.80;5.68;;;20.70;39.90;;;;;;5009331;28;20050;-63
2022/11/30 05:00:24;;;;;;;7.35;5.10;;;20.70;39.90;;;;;;4992137;28;20042;-63
2022/11/30 05:02:54;;;;;;;6.80;4.43;;;20.70;39.90;;;;;;5009111;28;20060;-63
2022/11/30 05:05:21;;;;;;;7.20;4.65;;;20.70;39.90;;;;;;4992373;28;20045;-63
2022/11/30 05:07:56;;;;;;;9.05;5.68;;;20.70;40.50;;;;;;5008957;28;20763;-63
2022/11/30 05:10:25;;;;;;;6.60;5.30;;;20.70;39.90;;;;;;5008401;28;20144;-63
2022/11/30 05:12:53;;;;;;;8.55;5.35;;;20.70;39.90;;;;;;5004683;28;20053;-63
2022/11/30 05:15:21;;;;;;;7.38;5.40;;;20.70;39.90;;;;;;5009433;28;20058;-63
2022/11/30 05:17:48;;;;;;;6.68;5.03;;;20.70;39.80;;;;;;5008964;28;20052;-63
2022/11/30 05:20:16;;;;;;;7.05;5.22;;;20.70;39.80;;;;;;5009122;28;20057;-63
2022/11/30 05:22:43;;;;;;;6.88;5.13;;;20.70;39.80;;;;;;5008729;28;20136;-64
2022/11/30 05:25:11;;;;;;;6.78;4.78;;;20.70;39.80;;;;;;5007835;28;20045;-63
2022/11/30 05:27:38;;;;;;;7.82;5.18;;;20.70;39.80;;;;;;5007919;28;20081;-63
2022/11/30 05:30:05;;;;;;;6.80;5.10;;;20.70;39.70;;;;;;5009701;28;20407;-63
2022/11/30 05:32:32;;;;;;;7.22;5.05;;;20.70;39.70;;;;;;5012602;28;20054;-63
2022/11/30 05:34:59;;;;;;;8.20;5.80;;;20.70;39.70;;;;;;5012481;28;20057;-63
2022/11/30 05:37:27;;;;;;;10.18;6.85;;;20.70;39.70;;;;;;5013089;28;20484;-63
2022/11/30 05:39:54;;;;;;;11.70;7.57;;;20.70;39.50;;;;;;4995629;28;20065;-63
2022/11/30 05:42:22;;;;;;;11.02;7.00;;;20.70;39.40;;;;;;5013160;28;20122;-63
2022/11/30 05:44:48;;;;;;;11.00;7.53;;;20.80;39.40;;;;;;4994536;28;20708;-63
2022/11/30 05:47:16;;;;;;;11.70;7.60;;;20.70;39.30;;;;;;5012773;28;20057;-63
2022/11/30 05:49:44;;;;;;;11.85;7.35;;;20.70;39.40;;;;;;4990887;28;20046;-64
2022/11/30 05:52:11;;;;;;;10.88;7.30;;;20.70;39.40;;;;;;4992174;28;20046;-63
2022/11/30 05:54:38;;;;;;;10.05;6.70;;;20.70;39.40;;;;;;5002294;28;20058;-65
2022/11/30 05:57:05;;;;;;;10.85;7.68;;;20.70;39.30;;;;;;5004033;28;20046;-63
2022/11/30 05:59:32;;;;;;;11.90;7.30;;;20.70;39.30;;;;;;5011595;28;20061;-63
2022/11/30 06:02:00;;;;;;;10.48;7.45;;;20.80;39.30;;;;;;5011976;28;20522;-64
2022/11/30 06:04:27;;;;;;;12.70;8.20;;;20.70;39.30;;;;;;5011960;28;20060;-63
2022/11/30 06:06:55;;;;;;;11.10;7.68;;;20.80;39.30;;;;;;5012634;28;20313;-64
2022/11/30 06:09:22;;;;;;;11.15;7.53;;;20.80;39.30;;;;;;4994049;28;20050;-64
2022/11/30 06:11:49;;;;;;;12.55;7.85;;;20.80;39.30;;;;;;5012478;28;20050;-64
2022/11/30 06:14:17;;;;;;;13.00;9.02;;;20.80;39.20;;;;;;5009335;28;20511;-64
2022/11/30 06:16:44;;;;;;;11.70;7.97;;;20.80;39.20;;;;;;5009653;28;20077;-62
2022/11/30 06:19:11;;;;;;;9.80;7.20;;;20.80;39.10;;;;;;5006499;28;20046;-62
2022/11/30 06:21:38;;;;;;;12.00;8.02;;;20.90;39.10;;;;;;5008944;28;20483;-61
2022/11/30 06:24:05;;;;;;;12.38;8.57;;;20.90;39.20;;;;;;5008496;28;20042;-61
2022/11/30 06:26:33;;;;;;;11.65;7.88;;;20.90;39.20;;;;;;5010931;28;20448;-62
2022/11/30 06:29:00;;;;;;;12.43;8.43;;;21.00;39.20;;;;;;5003557;28;20050;-61
2022/11/30 06:31:27;;;;;;;12.50;8.20;;;21.00;39.10;;;;;;5005422;28;20048;-61
2022/11/30 06:33:58;;;;;;;13.27;8.43;;;21.00;39.10;;;;;;4982441;28;20052;-62
2022/11/30 06:36:25;;;;;;;12.10;7.88;;;21.10;39.10;;;;;;5000208;28;20051;-61
2022/11/30 06:39:01;;;;;;;14.38;8.63;;;21.10;39.10;;;;;;5000342;28;20429;-63
2022/11/30 06:41:28;;;;;;;14.68;9.18;;;21.10;39.00;;;;;;4996550;28;20081;-63
2022/11/30 06:43:56;;;;;;;13.60;9.25;;;21.20;39.00;;;;;;4995207;28;20050;-61
2022/11/30 06:46:23;;;;;;;13.85;9.15;;;21.20;38.90;;;;;;4992291;28;20073;-63
2022/11/30 06:48:51;;;;;;;13.98;8.82;;;21.20;38.80;;;;;;4999982;28;20054;-63
2022/11/30 06:51:19;;;;;;;13.75;9.07;;;21.30;38.80;;;;;;4993673;28;20081;-62
2022/11/30 06:53:46;;;;;;;14.32;8.57;;;21.30;38.80;;;;;;4992211;28;20053;-62
2022/11/30 06:56:13;;;;;;;11.40;8.23;;;21.30;38.80;;;;;;4975115;28;20054;-63
2022/11/30 06:58:41;;;;;;;11.57;8.60;;;21.40;38.80;;;;;;4996467;28;20077;-62
2022/11/30 07:01:12;;;;;;;14.80;10.10;;;21.40;38.80;;;;;;4994850;28;20511;-62
2022/11/30 07:03:40;;;;;;;13.57;9.02;;;21.40;38.60;;;;;;4994236;28;20371;-62
2022/11/30 07:06:12;;;;;;;12.48;8.57;;;21.40;38.50;;;;;;4997884;28;20076;-63
2022/11/30 07:08:41;;;;;;;16.42;8.68;;;21.50;38.60;;;;;;4995793;28;20050;-62
2022/11/30 07:11:09;;;;;;;16.48;10.27;;;21.50;38.80;;;;;;4998982;28;20053;-63
2022/11/30 07:13:37;;;;;;;15.73;9.55;;;21.60;39.50;;;;;;4964111;28;20372;-65
2022/11/30 07:16:06;;;;;;;14.18;9.68;;;21.60;39.80;;;;;;4994791;28;20074;-63
2022/11/30 07:18:33;;;;;;;16.33;8.23;;;21.70;39.70;;;;;;4992495;28;20050;-62
2022/11/30 07:21:02;;;;;;;16.20;10.43;;;21.70;39.80;;;;;;4994642;28;20588;-64
2022/11/30 07:26:23;;;;;;;14.40;9.27;;;21.80;39.90;;;;;;4997505;28;20084;-63
2022/11/30 07:28:57;;;;;;;14.57;9.63;;;21.80;39.90;;;;;;4992493;28;20476;-63
2022/11/30 07:31:27;;;;;;;14.68;9.65;;;21.90;39.90;;;;;;4998675;28;20156;-64
2022/11/30 07:33:55;;;;;;;;;;;21.90;39.90;;;;;;4990619;28;21770;-66
2022/11/30 07:36:25;;;;;;;14.27;9.30;;;22.00;40.00;;;;;;4990876;28;19925;-65
2022/11/30 07:38:52;;;;;;;17.00;10.95;;;22.00;40.00;;;;;;4967752;28;20137;-69
2022/11/30 07:41:19;;;;;;;16.27;9.40;;;22.00;40.10;;;;;;4995540;28;20050;-63
2022/11/30 07:43:46;;;;;;;15.27;9.45;;;22.00;40.10;;;;;;4997991;28;20054;-64
2022/11/30 07:46:15;;;;;;;14.80;9.32;;;22.10;40.10;;;;;;4995800;28;20058;-63
2022/11/30 07:48:43;;;;;;;17.15;9.43;;;22.20;40.10;;;;;;4976378;28;20525;-64
2022/11/30 07:51:16;;;;;;;15.07;10.52;;;22.20;40.00;;;;;;4979587;28;20057;-67
2022/11/30 07:53:43;;;;;;;15.07;9.48;;;22.20;39.90;;;;;;4992871;28;20054;-63
2022/11/30 07:56:14;;;;;;;13.40;8.48;;;22.30;40.00;;;;;;4994981;28;20117;-63
2022/11/30 07:58:41;;;;;;;12.45;8.50;;;22.40;40.00;;;;;;4979209;28;20046;-64
2022/11/30 08:01:15;;;;;;;16.75;10.23;;;22.40;39.70;;;;;;4993710;28;20460;-68
2022/11/30 08:03:42;;;;;;;15.20;8.63;;;22.40;39.70;;;;;;4990843;28;20086;-62
2022/11/30 08:06:15;;;;;;;17.48;9.57;;;22.40;39.50;;;;;;4996046;28;20057;-61
2022/11/30 08:08:44;;;;;;;15.10;9.68;;;22.40;39.40;;;;;;4991573;28;20050;-62
2022/11/30 08:11:13;;;;;;;13.55;8.95;;;22.40;39.50;;;;;;4970799;28;20077;-63
2022/11/30 08:13:41;;;;;;;10.32;8.13;;;22.50;39.60;;;;;;4976147;28;20050;-62
2022/11/30 08:16:11;;;;;;;17.27;9.65;;;22.50;39.50;;;;;;4962703;28;20057;-63
2022/11/30 08:18:39;;;;;;;14.75;9.45;;;22.50;39.40;;;;;;4996405;28;20046;-63
2022/11/30 08:21:08;;;;;;;14.30;8.95;;;22.50;39.20;;;;;;4992620;28;20064;-62
2022/11/30 08:23:38;;;;;;;13.48;9.48;;;22.50;39.20;;;;;;4995449;28;20570;-62
2022/11/30 08:26:09;;;;;;;12.45;8.68;;;22.50;39.50;;;;;;4996036;28;20081;-63
2022/11/30 08:28:36;;;;;;;15.07;9.13;;;22.60;39.60;;;;;;4979284;28;20058;-63
2022/11/30 08:31:06;;;;;;;14.60;8.10;;;22.60;39.60;;;;;;4996462;28;20050;-64
2022/11/30 08:33:34;;;;;;;;;;;22.60;39.40;;;;;;4989879;28;20054;-62
2022/11/30 08:36:10;;;;;;;12.45;8.15;;;22.70;39.30;;;;;;4967388;28;19952;-60
2022/11/30 08:38:38;;;;;;;12.80;8.40;;;22.60;39.20;;;;;;4992294;28;20058;-62
2022/11/30 08:41:07;;;;;;;13.20;9.50;;;22.60;39.20;;;;;;4992856;28;20108;-65
2022/11/30 08:43:34;;;;;;;13.70;8.77;;;22.60;39.20;;;;;;4992328;28;20496;-61
2022/11/30 08:46:03;;;;;;;13.52;9.18;;;22.70;39.10;;;;;;4996847;28;20740;-62
2022/11/30 08:48:50;;;;;;;11.70;7.82;;;22.70;39.30;;;;;;4982922;28;20277;-64
2022/11/30 08:51:28;;;;;;;17.42;8.77;;;22.70;39.40;;;;;;4985817;28;20141;-61
2022/11/30 08:54:15;;;;;;;15.00;8.77;;;22.70;39.30;;;;;;4997667;28;20404;-62
2022/11/30 08:56:42;;;;;;;15.15;9.18;;;22.70;39.30;;;;;;4995793;28;20057;-61
2022/11/30 08:59:09;;;;;;;11.75;8.35;;;22.70;39.30;;;;;;4998237;28;20488;-64
2022/11/30 09:01:41;;;;;;;9.90;8.07;;;22.70;39.20;;;;;;4993435;28;20599;-61
2022/11/30 09:04:08;;;;;;;12.43;8.18;;;22.70;39.20;;;;;;4993709;28;20069;-62
2022/11/30 09:06:35;;;;;;;11.82;8.30;;;22.80;39.40;;;;;;4997130;28;20049;-61
2022/11/30 09:09:02;;;;;;;14.65;9.40;;;22.80;39.30;;;;;;4996022;28;20065;-62
2022/11/30 09:11:32;;;;;;;13.20;8.68;;;22.80;39.30;;;;;;4996600;28;20403;-63
2022/11/30 09:14:07;;;;;;;12.65;8.18;;;22.80;39.10;;;;;;4996004;28;20080;-62
2022/11/30 09:16:35;;;;;;;12.77;8.35;;;22.80;39.00;;;;;;4993509;28;20507;-63
2022/11/30 09:19:02;;;;;;;14.63;8.25;;;22.90;39.10;;;;;;4988694;28;20049;-61
2022/11/30 09:21:29;;;;;;;13.07;8.05;;;22.90;39.00;;;;;;4993945;28;20228;-62
2022/11/30 09:23:56;;;;;;;13.15;7.72;;;23.00;39.10;;;;;;4989999;28;20053;-59
2022/11/30 09:26:24;;;;;;;10.80;7.93;;;23.00;39.00;;;;;;4996039;28;20061;-62
2022/11/30 09:28:53;;;;;;;13.25;8.05;;;23.00;39.00;;;;;;4992422;28;20060;-62
2022/11/30 09:31:23;;;;;;;20.15;10.90;;;23.10;39.00;;;;;;4992582;28;20055;-62
2022/11/30 09:33:51;;;;;;;13.13;9.13;;;23.10;39.20;;;;;;4993712;28;20050;-66
2022/11/30 09:36:20;;;;;;;12.68;8.25;;;23.10;39.10;;;;;;4998488;28;20053;-63
2022/11/30 09:38:47;;;;;;;12.23;8.13;;;23.20;39.30;;;;;;4973296;28;20076;-60
2022/11/30 09:41:55;;;;;;;10.77;7.82;;;23.20;39.10;;;;;;4978770;28;20523;-60
2022/11/30 09:44:33;;;;;;;13.73;8.05;;;23.30;39.10;;;;;;4979941;28;20060;-62
2022/11/30 09:47:29;;;;;;;13.02;7.90;;;23.30;38.90;;;;;;4993102;28;20057;-61
2022/11/30 09:50:03;;;;;;;11.48;8.13;;;23.30;38.80;;;;;;4989726;28;20050;-60
2022/11/30 09:52:36;;;;;;;10.55;7.80;;;23.30;38.70;;;;;;4978254;28;20495;-61
2022/11/30 09:55:09;;;;;;;13.13;8.23;;;23.40;38.50;;;;;;4994752;28;20145;-61
2022/11/30 09:57:46;;;;;;;14.70;8.70;;;23.40;38.40;;;;;;4995434;28;20058;-61
2022/11/30 10:00:18;;;;;;;19.73;8.93;;;23.40;38.40;;;;;;4995904;28;20188;-60
2022/11/30 10:02:45;;;;;;;12.80;8.95;;;23.40;38.50;;;;;;4992013;28;20050;-62
2022/11/30 10:05:25;;;;;;;14.82;8.88;;;23.40;38.60;;;;;;4990281;28;20072;-61
2022/11/30 10:08:22;;;;;;;12.35;8.32;;;23.40;38.60;;;;;;4997246;28;20049;-60
2022/11/30 10:11:28;;;;;;;12.32;8.52;;;23.40;38.40;;;;;;4977124;28;20050;-59
2022/11/30 10:14:30;;;;;;;10.40;7.63;;;23.40;39.00;;;;;;5000327;28;20056;-59
2022/11/30 10:17:21;;;;;;;12.82;8.25;;;23.40;38.30;;;;;;4999982;28;20046;-60
2022/11/30 10:20:28;;;;;;;10.93;7.60;;;23.40;38.30;;;;;;4998078;28;20423;-60
2022/11/30 10:23:24;;;;;;;10.73;7.75;;;23.40;38.20;;;;;;4994392;28;20053;-60
2022/11/30 10:25:57;;;;;;;10.98;7.78;;;23.50;38.30;;;;;;4998422;28;20054;-60
2022/11/30 10:28:50;;;;;;;12.45;7.80;;;23.50;38.20;;;;;;4983622;28;20050;-60
2022/11/30 10:31:23;;;;;;;9.50;7.40;;;23.50;38.20;;;;;;4999262;28;21987;-60
2022/11/30 10:33:54;;;;;;;12.95;7.22;;;23.50;38.10;;;;;;4980083;28;20061;-61
2022/11/30 10:36:35;;;;;;;12.63;7.60;;;23.50;38.10;;;;;;4997643;28;20412;-60
2022/11/30 10:39:12;;;;;;;12.68;7.47;;;23.50;38.10;;;;;;4997436;28;20052;-60
2022/11/30 10:41:47;;;;;;;12.15;7.43;;;23.50;38.20;;;;;;4997059;28;20136;-61
2022/11/30 10:44:21;;;;;;;15.65;8.05;;;23.50;38.10;;;;;;4998135;28;20140;-61
2022/11/30 10:46:58;;;;;;;11.43;8.32;;;23.50;38.10;;;;;;4979851;28;20054;-60
2022/11/30 10:49:28;;;;;;;9.68;6.95;;;23.60;38.10;;;;;;4999568;28;20137;-60
2022/11/30 10:52:05;;;;;;;10.98;7.78;;;23.60;38.20;;;;;;4997247;28;20057;-61
2022/11/30 10:54:35;;;;;;;12.40;7.75;;;23.60;38.20;;;;;;4998984;28;20132;-65
2022/11/30 10:57:03;;;;;;;;;;;23.60;38.20;;;;;;4999642;28;20078;-63
2022/11/30 10:59:53;;;;;;;11.02;6.65;;;23.60;38.00;;;;;;5002408;28;19929;-64
2022/11/30 11:02:44;;;;;;;16.80;7.70;;;23.60;38.00;;;;;;4999564;28;20046;-62
2022/11/30 11:05:21;;;;;;;12.80;7.88;;;23.70;37.80;;;;;;4999675;28;20512;-62
2022/11/30 11:08:02;;;;;;;9.63;6.47;;;23.70;37.60;;;;;;4998652;28;20397;-62
2022/11/30 11:10:46;;;;;;;10.13;6.63;;;23.70;37.50;;;;;;4981841;28;20054;-63
2022/11/30 11:13:19;;;;;;;8.70;6.43;;;23.70;37.40;;;;;;4979296;28;20599;-63
2022/11/30 11:15:59;;;;;;;9.98;6.78;;;23.70;37.30;;;;;;4999979;28;20241;-63
2022/11/30 11:18:29;;;;;;;7.32;6.15;;;23.80;37.20;;;;;;4993022;28;20056;-63
2022/11/30 11:21:15;;;;;;;14.48;7.78;;;23.70;37.10;;;;;;5000666;28;20050;-63
2022/11/30 11:23:45;;;;;;;11.65;6.68;;;23.70;37.00;;;;;;5001063;28;20050;-63
2022/11/30 11:26:21;;;;;;;;;;;23.80;37.20;;;;;;4996328;28;20383;-63
2022/11/30 11:28:52;;;;;;;10.52;6.78;;;23.70;37.00;;;;;;4997497;28;19984;-63
2022/11/30 11:31:38;;;;;;;12.20;7.20;;;23.70;36.70;;;;;;4994397;28;20069;-62
2022/11/30 11:34:23;;;;;;;9.30;6.72;;;23.80;36.70;;;;;;5000587;28;20050;-63
2022/11/30 11:37:22;;;;;;;12.75;7.28;;;23.80;36.80;;;;;;4985443;28;20054;-62
2022/11/30 11:40:14;;;;;;;8.65;6.57;;;23.80;36.80;;;;;;4996171;28;20499;-63
2022/11/30 11:42:48;;;;;;;10.98;7.30;;;23.80;36.80;;;;;;4992318;28;20050;-61
2022/11/30 11:45:20;;;;;;;11.60;6.40;;;23.80;36.80;;;;;;4994063;28;20405;-62
2022/11/30 11:47:58;;;;;;;8.90;6.25;;;23.70;36.70;;;;;;4995067;28;20053;-63
2022/11/30 11:50:30;;;;;;;8.57;6.50;;;23.70;36.80;;;;;;4964069;28;20049;-63
2022/11/30 11:53:44;;;;;;;10.90;7.15;;;23.70;36.80;;;;;;4976979;28;20054;-63
2022/11/30 11:56:27;;;;;;;8.98;6.38;;;23.70;36.80;;;;;;4996813;28;20096;-63
2022/11/30 11:59:14;;;;;;;10.35;6.40;;;23.70;37.10;;;;;;4976013;28;20795;-64
2022/11/30 12:02:10;;;;;;;9.95;6.68;;;23.70;37.00;;;;;;4994366;28;20149;-65
2022/11/30 12:04:51;;;;;;;9.30;6.45;;;23.70;37.00;;;;;;4995058;28;20046;-64
2022/11/30 12:07:37;;;;;;;8.95;6.40;;;23.70;37.00;;;;;;4979078;28;20057;-64
2022/11/30 12:10:36;;;;;;;11.52;5.97;;;23.70;37.00;;;;;;4995832;28;20469;-66
2022/11/30 12:13:38;;;;;;;8.55;6.13;;;23.70;37.00;;;;;;4995384;28;21005;-65
2022/11/30 12:16:39;;;;;;;7.78;5.43;;;23.70;37.50;;;;;;4982370;28;20149;-64
2022/11/30 12:19:20;;;;;;;7.50;5.47;;;23.70;37.60;;;;;;4995101;28;20046;-61
2022/11/30 12:22:27;;;;;;;8.82;6.38;;;23.70;37.60;;;;;;4995669;28;20046;-63
2022/11/30 12:25:29;;;;;;;9.40;5.70;;;23.70;37.60;;;;;;4993388;28;20049;-63
2022/11/30 12:28:20;;;;;;;6.28;5.63;;;23.70;38.00;;;;;;4984773;28;20410;-65
2022/11/30 12:31:13;;;;;;;9.07;6.30;;;23.70;37.50;;;;;;4995708;28;20054;-61
2022/11/30 12:34:11;;;;;;;9.70;5.85;;;23.70;37.80;;;;;;4994962;28;20487;-59
2022/11/30 12:37:09;;;;;;;10.80;6.38;;;23.70;38.00;;;;;;4994218;28;20058;-61
2022/11/30 12:40:03;;;;;;;6.82;5.18;;;23.70;38.20;;;;;;4994355;28;20053;-61
2022/11/30 12:42:45;;;;;;;10.18;6.22;;;23.70;38.20;;;;;;4995635;28;20065;-61
2022/11/30 12:45:36;;;;;;;9.13;5.85;;;23.70;38.20;;;;;;4996660;28;20054;-61
2022/11/30 12:48:39;;;;;;;8.45;5.72;;;23.70;38.10;;;;;;4989218;28;20120;-62
2022/11/30 12:51:34;;;;;;;8.40;6.82;;;23.70;38.10;;;;;;4994791;28;20571;-62
2022/11/30 12:54:32;;;;;;;7.63;5.50;;;23.80;38.20;;;;;;4995756;28;20472;-61
2022/11/30 12:57:20;;;;;;;7.90;5.50;;;23.80;38.10;;;;;;4995863;28;20050;-61
2022/11/30 13:00:13;;;;;;;7.07;5.43;;;23.80;37.90;;;;;;4987824;28;20050;-62
2022/11/30 13:02:59;;;;;;;7.55;6.05;;;23.80;38.00;;;;;;4973643;28;20061;-61
2022/11/30 13:05:38;;;;;;;7.70;5.55;;;23.80;37.90;;;;;;4993282;28;20407;-62
2022/11/30 13:08:45;;;;;;;7.18;5.53;;;23.80;37.90;;;;;;4998227;28;20057;-64
2022/11/30 13:11:22;;;;;;;6.55;5.47;;;23.90;37.70;;;;;;4992540;28;20091;-65
2022/11/30 13:13:54;;;;;;;7.82;6.07;;;23.90;37.80;;;;;;4977158;28;20046;-65
2022/11/30 13:16:23;;;;;;;9.02;5.75;;;23.90;37.60;;;;;;4996292;28;20046;-64
2022/11/30 13:18:54;;;;;;;7.35;5.30;;;23.90;37.50;;;;;;4996511;28;21303;-65